createdAt,value
2023-03-08T00:00:41.134Z,99323.16
2023-03-08T00:03:07.881Z,99313.41
2023-03-08T00:05:34.615Z,99321.75
2023-03-08T00:08:01.365Z,99331.38
2023-03-08T00:10:28.104Z,99329.31
2023-03-08T00:12:54.684Z,99355.84
2023-03-08T00:15:21.237Z,99365.13
2023-03-08T00:17:47.723Z,99366.84
2023-03-08T00:20:14.254Z,99373.72
2023-03-08T00:22:41.893Z,99362.22
2023-03-08T00:25:09.742Z,99372.88
2023-03-08T00:27:36.681Z,99367.94
2023-03-08T00:30:06.351Z,99361.22
2023-03-08T00:32:33.580Z,99357.41
2023-03-08T00:35:00.283Z,99367.31
2023-03-08T00:37:26.850Z,99362.53
2023-03-08T00:39:53.950Z,99364.75
2023-03-08T00:42:21.535Z,99372.25
2023-03-08T00:44:48.462Z,99377.75
2023-03-08T00:47:15.242Z,99378.09
2023-03-08T00:49:41.848Z,99363.16
2023-03-08T00:52:08.675Z,99359.75
2023-03-08T00:54:35.250Z,99376.34
2023-03-08T00:57:01.721Z,99374.88
2023-03-08T00:59:28.475Z,99367.91
2023-03-08T01:01:55.140Z,99362.53
2023-03-08T01:04:23.111Z,99361.50
2023-03-08T01:06:49.670Z,99362.13
2023-03-08T01:09:16.240Z,99354.66
2023-03-08T01:11:44.226Z,99348.81
2023-03-08T01:14:10.839Z,99361.38
2023-03-08T01:16:37.382Z,99353.25
2023-03-08T01:19:04.562Z,99349.88
2023-03-08T01:21:31.963Z,99352.00
2023-03-08T01:23:59.385Z,99346.97
2023-03-08T01:26:26.734Z,99350.13
2023-03-08T01:28:53.385Z,99345.16
2023-03-08T01:31:25.316Z,99341.25
2023-03-08T01:33:52.832Z,99338.69
2023-03-08T01:36:21.009Z,99334.25
2023-03-08T01:38:48.411Z,99333.00
2023-03-08T01:41:19.694Z,99339.09
2023-03-08T01:43:46.321Z,99335.38
2023-03-08T01:46:32.203Z,99334.81
2023-03-08T01:48:59.212Z,99331.13
2023-03-08T01:51:34.310Z,99335.03
2023-03-08T01:54:02.256Z,99330.38
2023-03-08T01:56:29.266Z,99327.09
2023-03-08T01:58:57.162Z,99326.47
2023-03-08T02:01:24.279Z,99322.00
2023-03-08T02:03:51.411Z,99327.22
2023-03-08T02:06:19.259Z,99328.34
2023-03-08T02:08:46.396Z,99328.09
2023-03-08T02:11:14.154Z,99328.47
2023-03-08T02:13:42.149Z,99323.72
2023-03-08T02:16:12.391Z,99321.09
2023-03-08T02:18:49.246Z,99317.56
2023-03-08T02:21:15.890Z,99329.25
2023-03-08T02:23:42.276Z,99330.38
2023-03-08T02:26:09.272Z,99321.63
2023-03-08T02:28:35.879Z,99318.44
2023-03-08T02:31:02.771Z,99316.16
2023-03-08T02:33:31.163Z,99320.91
2023-03-08T02:35:59.053Z,99326.88
2023-03-08T02:38:25.818Z,99321.97
2023-03-08T02:40:53.350Z,99317.63
2023-03-08T02:43:20.619Z,99325.50
2023-03-08T02:45:47.383Z,99332.16
2023-03-08T02:48:14.381Z,99334.78
2023-03-08T02:50:40.920Z,99341.72
2023-03-08T02:53:07.810Z,99337.81
2023-03-08T02:55:36.334Z,99336.97
2023-03-08T02:58:06.757Z,99330.38
2023-03-08T03:00:33.751Z,99330.72
2023-03-08T03:03:00.463Z,99336.50
2023-03-08T03:05:27.234Z,99339.41
2023-03-08T03:07:55.383Z,99330.78
2023-03-08T03:10:22.317Z,99338.13
2023-03-08T03:12:48.961Z,99331.81
2023-03-08T03:15:15.912Z,99334.69
2023-03-08T03:17:42.709Z,99340.34
2023-03-08T03:20:09.773Z,99342.25
2023-03-08T03:22:36.802Z,99348.66
2023-03-08T03:25:04.370Z,99344.69
2023-03-08T03:27:31.180Z,99355.19
2023-03-08T03:29:57.879Z,99348.59
2023-03-08T03:32:24.760Z,99357.44
2023-03-08T03:34:51.422Z,99351.16
2023-03-08T03:37:18.586Z,99359.25
2023-03-08T03:39:45.641Z,99355.28
2023-03-08T03:42:12.406Z,99360.44
2023-03-08T03:44:39.291Z,99363.31
2023-03-08T03:47:06.511Z,99361.47
2023-03-08T03:49:34.404Z,99358.91
2023-03-08T03:52:01.502Z,99358.66
2023-03-08T03:54:28.509Z,99355.78
2023-03-08T03:56:58.426Z,99362.25
2023-03-08T03:59:26.733Z,99353.38
2023-03-08T04:01:55.232Z,99354.69
2023-03-08T04:04:22.063Z,99365.97
2023-03-08T04:06:48.931Z,99360.56
2023-03-08T04:09:17.326Z,99368.34
2023-03-08T04:11:44.309Z,99360.13
2023-03-08T04:14:11.795Z,99362.16
2023-03-08T04:16:39.484Z,99370.34
2023-03-08T04:19:07.803Z,99370.41
2023-03-08T04:21:34.833Z,99368.56
2023-03-08T04:24:01.808Z,99368.34
2023-03-08T04:26:28.971Z,99359.47
2023-03-08T04:28:55.812Z,99369.38
2023-03-08T04:31:25.334Z,99360.78
2023-03-08T04:33:52.420Z,99349.53
2023-03-08T04:36:21.312Z,99345.06
2023-03-08T04:38:49.344Z,99354.34
2023-03-08T04:41:18.359Z,99354.91
2023-03-08T04:43:46.303Z,99352.34
2023-03-08T04:46:13.326Z,99353.88
2023-03-08T04:48:40.301Z,99349.63
2023-03-08T04:51:07.466Z,99357.75
2023-03-08T04:53:35.191Z,99351.44
2023-03-08T04:56:02.334Z,99348.13
2023-03-08T04:58:30.249Z,99350.50
2023-03-08T05:00:57.344Z,99354.28
2023-03-08T05:03:25.051Z,99345.06
2023-03-08T05:05:52.847Z,99346.91
2023-03-08T05:08:19.553Z,99351.88
2023-03-08T05:10:50.461Z,99351.97
2023-03-08T05:13:17.700Z,99352.16
2023-03-08T05:15:44.484Z,99344.47
2023-03-08T05:18:12.375Z,99349.41
2023-03-08T05:20:39.467Z,99345.91
2023-03-08T05:23:06.250Z,99340.59
2023-03-08T05:25:34.421Z,99347.72
2023-03-08T05:28:01.439Z,99351.41
2023-03-08T05:30:28.351Z,99342.22
2023-03-08T05:32:54.701Z,99351.69
2023-03-08T05:35:22.901Z,99352.00
2023-03-08T05:37:52.694Z,99350.44
2023-03-08T05:40:19.680Z,99347.38
2023-03-08T05:42:46.941Z,99344.31
2023-03-08T05:45:14.856Z,99351.44
2023-03-08T05:47:42.490Z,99349.91
2023-03-08T05:50:10.982Z,99353.25
2023-03-08T05:52:38.002Z,99352.66
2023-03-08T05:55:05.911Z,99349.78
2023-03-08T05:57:32.949Z,99349.06
2023-03-08T06:00:00.311Z,99341.91
2023-03-08T06:02:30.169Z,99349.56
2023-03-08T06:04:58.530Z,99348.00
2023-03-08T06:07:25.893Z,99349.41
2023-03-08T06:09:54.035Z,99360.16
2023-03-08T06:12:31.877Z,99354.94
2023-03-08T06:14:59.407Z,99363.00
2023-03-08T06:17:26.311Z,99358.56
2023-03-08T06:19:54.434Z,99360.66
2023-03-08T06:22:21.546Z,99355.00
2023-03-08T06:24:56.240Z,99361.22
2023-03-08T06:27:27.800Z,99368.34
2023-03-08T06:30:01.030Z,99357.41
2023-03-08T06:32:28.617Z,99360.56
2023-03-08T06:35:00.746Z,99360.25
2023-03-08T06:37:34.684Z,99356.00
2023-03-08T06:40:02.609Z,99348.47
2023-03-08T06:42:40.778Z,99350.59
2023-03-08T06:45:08.895Z,99354.69
2023-03-08T06:47:35.664Z,99350.44
2023-03-08T06:50:05.418Z,99366.56
2023-03-08T06:52:37.675Z,99362.69
2023-03-08T06:55:06.059Z,99365.47
2023-03-08T06:57:35.054Z,99360.81
2023-03-08T07:00:02.387Z,99361.16
2023-03-08T07:02:31.860Z,99361.44
2023-03-08T07:05:01.389Z,99359.72
2023-03-08T07:07:31.446Z,99356.53
2023-03-08T07:09:59.953Z,99356.34
2023-03-08T07:12:28.528Z,99349.41
2023-03-08T07:14:56.375Z,99348.41
2023-03-08T07:17:24.414Z,99348.84
2023-03-08T07:19:51.299Z,99352.91
2023-03-08T07:22:20.615Z,99353.50
2023-03-08T07:24:49.824Z,99350.63
2023-03-08T07:27:17.720Z,99355.31
2023-03-08T07:29:45.256Z,99359.00
2023-03-08T07:32:13.390Z,99361.00
2023-03-08T07:34:40.986Z,99359.97
2023-03-08T07:37:18.149Z,99372.41
2023-03-08T07:39:47.630Z,99364.41
2023-03-08T07:42:15.414Z,99363.22
2023-03-08T07:44:43.514Z,99365.22
2023-03-08T07:47:11.319Z,99364.91
2023-03-08T07:49:42.294Z,99369.16
2023-03-08T07:52:10.830Z,99356.97
2023-03-08T07:54:38.995Z,99360.97
2023-03-08T07:57:05.584Z,99350.47
2023-03-08T07:59:33.981Z,99360.81
2023-03-08T08:02:02.660Z,99358.00
2023-03-08T08:04:31.256Z,99355.31
2023-03-08T08:06:59.559Z,99345.66
2023-03-08T08:09:28.167Z,99342.41
2023-03-08T08:11:56.105Z,99343.94
2023-03-08T08:14:23.648Z,99343.41
2023-03-08T08:16:51.065Z,99349.41
2023-03-08T08:19:19.292Z,99350.31
2023-03-08T08:21:47.683Z,99348.19
2023-03-08T08:24:14.789Z,99351.28
2023-03-08T08:26:42.106Z,99350.38
2023-03-08T08:29:09.241Z,99352.69
2023-03-08T08:31:37.682Z,99346.13
2023-03-08T08:34:05.357Z,99349.81
2023-03-08T08:36:34.649Z,99340.78
2023-03-08T08:39:02.675Z,99342.19
2023-03-08T08:41:30.896Z,99344.59
2023-03-08T08:43:59.719Z,99344.00
2023-03-08T08:46:28.614Z,99344.41
2023-03-08T08:48:56.699Z,99344.78
2023-03-08T08:51:24.601Z,99344.69
2023-03-08T08:53:51.408Z,99339.91
2023-03-08T08:56:26.554Z,99341.22
2023-03-08T08:58:55.901Z,99338.06
2023-03-08T09:01:26.617Z,99340.44
2023-03-08T09:03:53.961Z,99337.78
2023-03-08T09:06:22.926Z,99342.16
2023-03-08T09:08:55.751Z,99345.91
2023-03-08T09:11:23.391Z,99347.41
2023-03-08T09:13:50.940Z,99331.41
2023-03-08T09:16:26.291Z,99340.38
2023-03-08T09:18:54.421Z,99340.81
2023-03-08T09:21:21.328Z,99347.09
2023-03-08T09:23:47.980Z,99344.28
2023-03-08T09:26:17.716Z,99347.75
2023-03-08T09:28:44.803Z,99344.56
2023-03-08T09:31:15.280Z,99336.41
2023-03-08T09:33:44.175Z,99344.66
2023-03-08T09:36:11.155Z,99336.66
2023-03-08T09:38:39.643Z,99339.47
2023-03-08T09:41:13.480Z,99340.72
2023-03-08T09:44:01.807Z,99343.75
2023-03-08T09:46:30.754Z,99344.72
2023-03-08T09:49:01.061Z,99341.13
2023-03-08T09:51:32.702Z,99346.47
2023-03-08T09:54:03.442Z,99344.66
2023-03-08T09:56:50.483Z,99346.19
2023-03-08T09:59:21.477Z,99342.03
2023-03-08T10:02:17.638Z,99341.66
2023-03-08T10:05:12.674Z,99338.88
2023-03-08T10:07:45.940Z,99327.31
2023-03-08T10:10:24.158Z,99322.25
2023-03-08T10:13:04.884Z,99317.38
2023-03-08T10:15:34.386Z,99319.38
2023-03-08T10:18:05.884Z,99315.44
2023-03-08T10:20:35.392Z,99324.88
2023-03-08T10:23:07.458Z,99317.97
2023-03-08T10:25:37.812Z,99320.53
2023-03-08T10:28:10.456Z,99315.34
2023-03-08T10:30:48.564Z,99311.03
2023-03-08T10:33:17.960Z,99315.72
2023-03-08T10:35:51.644Z,99315.81
2023-03-08T10:38:19.548Z,99320.34
2023-03-08T10:40:47.728Z,99313.44
2023-03-08T10:43:20.809Z,99306.06
2023-03-08T10:46:00.351Z,99302.81
2023-03-08T10:48:28.798Z,99308.59
2023-03-08T10:51:01.463Z,99309.00
2023-03-08T10:53:30.357Z,99306.91
2023-03-08T10:55:59.127Z,99300.22
2023-03-08T10:58:32.755Z,99295.19
2023-03-08T11:01:05.473Z,99289.66
2023-03-08T11:03:33.177Z,99293.66
2023-03-08T11:06:26.705Z,99295.66
2023-03-08T11:08:58.509Z,99297.69
2023-03-08T11:11:25.911Z,99293.81
2023-03-08T11:13:53.762Z,99285.69
2023-03-08T11:16:35.460Z,99291.44
2023-03-08T11:19:22.745Z,99289.81
2023-03-08T11:21:56.067Z,99286.09
2023-03-08T11:24:35.816Z,99282.44
2023-03-08T11:27:12.307Z,99278.13
2023-03-08T11:29:40.040Z,99273.19
2023-03-08T11:32:17.221Z,99270.81
2023-03-08T11:34:58.144Z,99274.06
2023-03-08T11:37:31.535Z,99273.81
2023-03-08T11:40:13.945Z,99271.38
2023-03-08T11:43:13.536Z,99269.72
2023-03-08T11:46:02.658Z,99271.53
2023-03-08T11:48:37.904Z,99263.94
2023-03-08T11:51:15.345Z,99259.22
2023-03-08T11:54:00.917Z,99261.38
2023-03-08T11:56:51.501Z,99267.84
2023-03-08T11:59:25.453Z,99256.13
2023-03-08T12:02:08.673Z,99256.03
2023-03-08T12:04:43.598Z,99249.38
2023-03-08T12:07:16.559Z,99251.31
2023-03-08T12:09:51.213Z,99248.31
2023-03-08T12:12:22.322Z,99252.09
2023-03-08T12:14:50.705Z,99254.50
2023-03-08T12:17:25.156Z,99251.72
2023-03-08T12:19:53.412Z,99248.75
2023-03-08T12:22:35.733Z,99238.88
2023-03-08T12:25:17.542Z,99238.13
2023-03-08T12:27:51.674Z,99233.84
2023-03-08T12:30:24.837Z,99242.59
2023-03-08T12:32:58.734Z,99239.50
2023-03-08T12:35:29.993Z,99232.25
2023-03-08T12:37:58.727Z,99235.25
2023-03-08T12:40:31.000Z,99232.88
2023-03-08T12:43:06.587Z,99233.72
2023-03-08T12:45:33.777Z,99237.19
2023-03-08T12:48:05.551Z,99231.03
2023-03-08T12:50:43.696Z,99226.00
2023-03-08T12:53:30.379Z,99227.66
2023-03-08T12:56:14.042Z,99223.22
2023-03-08T12:58:48.637Z,99219.34
2023-03-08T13:01:36.173Z,99223.78
2023-03-08T13:04:04.849Z,99228.34
2023-03-08T13:06:50.768Z,99227.25
2023-03-08T13:09:28.271Z,99226.63
2023-03-08T13:12:13.903Z,99239.84
2023-03-08T13:14:46.718Z,99236.94
2023-03-08T13:17:39.429Z,99237.59
2023-03-08T13:20:29.320Z,99232.66
2023-03-08T13:23:04.409Z,99226.03
2023-03-08T13:25:51.318Z,99227.41
2023-03-08T13:28:19.831Z,99229.91
2023-03-08T13:30:52.443Z,99227.66
2023-03-08T13:33:26.310Z,99233.72
2023-03-08T13:35:56.222Z,99230.00
2023-03-08T13:38:25.913Z,99236.16
2023-03-08T13:40:54.556Z,99238.94
2023-03-08T13:43:23.394Z,99241.97
2023-03-08T13:45:51.725Z,99235.13
2023-03-08T13:48:19.567Z,99239.84
2023-03-08T13:50:50.702Z,99236.53
2023-03-08T13:53:20.320Z,99237.69
2023-03-08T13:55:49.102Z,99229.41
2023-03-08T13:58:38.424Z,99242.41
2023-03-08T14:01:11.710Z,99241.41
2023-03-08T14:03:38.706Z,99234.03
2023-03-08T14:06:17.013Z,99238.28
2023-03-08T14:08:45.673Z,99226.56
2023-03-08T14:11:17.329Z,99234.78
2023-03-08T14:13:47.521Z,99231.78
2023-03-08T14:16:25.788Z,99229.09
2023-03-08T14:18:52.594Z,99228.72
2023-03-08T14:21:23.822Z,99228.44
2023-03-08T14:23:52.368Z,99223.22
2023-03-08T14:26:25.218Z,99227.88
2023-03-08T14:29:02.280Z,99223.72
2023-03-08T14:31:29.872Z,99223.34
2023-03-08T14:34:01.194Z,99222.41
2023-03-08T14:36:30.657Z,99228.69
2023-03-08T14:39:00.312Z,99222.44
2023-03-08T14:41:32.601Z,99217.78
2023-03-08T14:44:00.426Z,99220.06
2023-03-08T14:46:28.391Z,99205.59
2023-03-08T14:49:03.388Z,99206.78
2023-03-08T14:51:36.753Z,99205.19
2023-03-08T14:54:06.118Z,99208.94
2023-03-08T14:56:34.579Z,99206.28
2023-03-08T14:59:03.708Z,99210.31
2023-03-08T15:01:31.961Z,99203.78
2023-03-08T15:03:59.857Z,99205.66
2023-03-08T15:06:32.419Z,99203.44
2023-03-08T15:09:00.372Z,99199.09
2023-03-08T15:11:31.686Z,99201.59
2023-03-08T15:14:00.757Z,99202.38
2023-03-08T15:16:27.633Z,99206.28
2023-03-08T15:18:54.408Z,99197.84
2023-03-08T15:21:25.522Z,99204.22
2023-03-08T15:23:52.718Z,99205.00
2023-03-08T15:26:23.380Z,99205.88
2023-03-08T15:28:50.860Z,99201.75
2023-03-08T15:31:19.171Z,99199.28
2023-03-08T15:33:46.406Z,99199.31
2023-03-08T15:36:14.681Z,99197.47
2023-03-08T15:38:41.882Z,99201.97
2023-03-08T15:41:12.405Z,99196.63
2023-03-08T15:43:41.228Z,99191.31
2023-03-08T15:46:13.244Z,99198.47
2023-03-08T15:48:39.976Z,99195.59
2023-03-08T15:51:07.317Z,99187.22
2023-03-08T15:53:36.045Z,99191.94
2023-03-08T15:56:03.350Z,99193.97
2023-03-08T15:58:31.605Z,99194.59
2023-03-08T16:00:59.222Z,99190.69
2023-03-08T16:03:30.832Z,99190.31
2023-03-08T16:05:58.652Z,99192.34
2023-03-08T16:08:27.389Z,99194.78
2023-03-08T16:10:54.002Z,99187.03
2023-03-08T16:13:22.085Z,99187.41
2023-03-08T16:15:49.623Z,99181.69
2023-03-08T16:18:17.096Z,99187.84
2023-03-08T16:20:46.260Z,99183.34
2023-03-08T16:23:15.412Z,99186.41
2023-03-08T16:25:43.617Z,99182.94
2023-03-08T16:28:10.725Z,99181.47
2023-03-08T16:30:40.311Z,99183.34
2023-03-08T16:33:08.564Z,99185.00
2023-03-08T16:35:36.011Z,99186.22
2023-03-08T16:38:02.935Z,99183.53
2023-03-08T16:40:31.507Z,99180.88
2023-03-08T16:42:58.314Z,99200.63
2023-03-08T16:45:25.412Z,99191.94
2023-03-08T16:47:52.635Z,99184.78
2023-03-08T16:50:19.960Z,99193.50
2023-03-08T16:52:47.389Z,99192.47
2023-03-08T16:55:13.964Z,99190.53
2023-03-08T16:57:41.887Z,99196.94
2023-03-08T17:00:12.815Z,99193.88
2023-03-08T17:02:40.554Z,99190.69
2023-03-08T17:05:07.888Z,99201.06
2023-03-08T17:07:34.781Z,99195.97
2023-03-08T17:10:01.885Z,99199.47
2023-03-08T17:12:28.681Z,99200.81
2023-03-08T17:14:57.002Z,99198.25
2023-03-08T17:17:23.943Z,99200.34
2023-03-08T17:19:55.157Z,99205.22
2023-03-08T17:22:22.157Z,99196.34
2023-03-08T17:24:48.945Z,99200.22
2023-03-08T17:27:15.942Z,99206.97
2023-03-08T17:29:42.679Z,99205.72
2023-03-08T17:32:10.033Z,99207.03
2023-03-08T17:34:37.530Z,99204.13
2023-03-08T17:37:04.446Z,99209.53
2023-03-08T17:39:31.047Z,99217.56
2023-03-08T17:41:57.901Z,99205.66
2023-03-08T17:44:24.732Z,99207.31
2023-03-08T17:46:51.462Z,99223.09
2023-03-08T17:49:23.420Z,99217.19
2023-03-08T17:51:50.033Z,99215.09
2023-03-08T17:54:16.714Z,99216.41
2023-03-08T17:56:43.654Z,99215.22
2023-03-08T17:59:13.581Z,99208.63
2023-03-08T18:01:40.829Z,99219.31
2023-03-08T18:04:08.041Z,99213.94
2023-03-08T18:06:35.564Z,99217.47
2023-03-08T18:09:05.055Z,99225.06
2023-03-08T18:11:37.309Z,99225.06
2023-03-08T18:14:08.504Z,99228.09
2023-03-08T18:16:35.361Z,99226.28
2023-03-08T18:19:03.158Z,99218.63
2023-03-08T18:21:31.028Z,99219.75
2023-03-08T18:23:58.118Z,99218.63
2023-03-08T18:26:24.685Z,99219.81
2023-03-08T18:28:51.886Z,99224.66
2023-03-08T18:31:23.119Z,99216.59
2023-03-08T18:33:50.133Z,99208.78
2023-03-08T18:36:17.860Z,99216.38
2023-03-08T18:38:44.693Z,99221.41
2023-03-08T18:41:20.702Z,99213.69
2023-03-08T18:43:47.469Z,99213.03
2023-03-08T18:46:14.528Z,99210.22
2023-03-08T18:48:42.016Z,99207.59
2023-03-08T18:51:10.266Z,99207.00
2023-03-08T18:53:38.153Z,99203.78
2023-03-08T18:56:05.686Z,99201.16
2023-03-08T18:58:32.654Z,99202.91
2023-03-08T19:01:00.615Z,99205.31
2023-03-08T19:03:27.656Z,99204.44
2023-03-08T19:06:01.069Z,99202.38
2023-03-08T19:08:28.941Z,99207.09
2023-03-08T19:10:55.544Z,99198.31
2023-03-08T19:13:24.982Z,99199.66
2023-03-08T19:15:51.999Z,99195.34
2023-03-08T19:18:19.767Z,99193.63
2023-03-08T19:20:47.207Z,99197.06
2023-03-08T19:23:14.562Z,99199.38
2023-03-08T19:26:13.799Z,99199.75
2023-03-08T19:28:41.589Z,99199.13
2023-03-08T19:31:15.486Z,99195.00
2023-03-08T19:33:47.499Z,99193.06
2023-03-08T19:36:14.416Z,99191.81
2023-03-08T19:38:41.140Z,99192.63
2023-03-08T19:41:13.454Z,99193.38
2023-03-08T19:43:40.620Z,99189.53
2023-03-08T19:46:09.900Z,99186.50
2023-03-08T19:48:37.129Z,99178.72
2023-03-08T19:51:03.845Z,99182.97
2023-03-08T19:53:31.089Z,99180.94
2023-03-08T19:55:57.674Z,99181.16
2023-03-08T19:58:24.971Z,99182.34
2023-03-08T20:01:01.181Z,99173.84
2023-03-08T20:03:28.967Z,99179.00
2023-03-08T20:05:55.721Z,99177.31
2023-03-08T20:08:23.381Z,99177.31
2023-03-08T20:10:51.201Z,99182.44
2023-03-08T20:13:18.075Z,99176.31
2023-03-08T20:15:45.122Z,99188.56
2023-03-08T20:18:11.774Z,99184.78
2023-03-08T20:20:38.763Z,99187.09
2023-03-08T20:23:05.820Z,99186.88
2023-03-08T20:25:34.721Z,99195.16
2023-03-08T20:28:01.581Z,99195.00
2023-03-08T20:30:29.198Z,99204.69
2023-03-08T20:32:56.036Z,99189.97
2023-03-08T20:35:24.084Z,99197.19
2023-03-08T20:37:51.077Z,99205.06
2023-03-08T20:40:21.469Z,99210.44
2023-03-08T20:42:48.168Z,99208.13
2023-03-08T20:45:15.604Z,99217.69
2023-03-08T20:47:42.439Z,99210.16
2023-03-08T20:50:09.787Z,99209.19
2023-03-08T20:52:37.002Z,99205.38
2023-03-08T20:55:04.280Z,99197.22
2023-03-08T20:57:31.255Z,99196.19
2023-03-08T20:59:58.097Z,99193.47
2023-03-08T21:02:25.148Z,99203.94
2023-03-08T21:04:51.914Z,99201.75
2023-03-08T21:07:18.853Z,99211.47
2023-03-08T21:09:45.982Z,99218.25
2023-03-08T21:12:13.019Z,99220.91
2023-03-08T21:14:40.083Z,99232.88
2023-03-08T21:17:06.882Z,99226.56
2023-03-08T21:19:33.794Z,99233.34
2023-03-08T21:22:00.753Z,99226.31
2023-03-08T21:24:27.146Z,99229.53
2023-03-08T21:26:53.943Z,99222.88
2023-03-08T21:29:21.734Z,99226.81
2023-03-08T21:31:53.008Z,99217.31
2023-03-08T21:34:20.109Z,99216.94
2023-03-08T21:36:47.069Z,99213.53
2023-03-08T21:39:14.401Z,99214.56
2023-03-08T21:41:43.408Z,99208.47
2023-03-08T21:44:13.300Z,99209.69
2023-03-08T21:46:40.765Z,99217.00
2023-03-08T21:49:07.998Z,99210.72
2023-03-08T21:51:35.865Z,99201.19
2023-03-08T21:54:02.824Z,99196.59
2023-03-08T21:56:29.593Z,99191.09
2023-03-08T21:58:56.612Z,99182.88
2023-03-08T22:01:28.674Z,99171.06
2023-03-08T22:03:56.323Z,99180.16
2023-03-08T22:06:23.667Z,99180.94
2023-03-08T22:08:50.770Z,99196.31
2023-03-08T22:11:19.184Z,99183.63
2023-03-08T22:13:50.686Z,99171.97
2023-03-08T22:16:18.127Z,99175.47
2023-03-08T22:18:45.165Z,99180.31
2023-03-08T22:21:12.209Z,99172.28
2023-03-08T22:23:40.235Z,99167.78
2023-03-08T22:26:08.422Z,99170.59
2023-03-08T22:28:36.359Z,99186.06
2023-03-08T22:31:09.212Z,99170.63
2023-03-08T22:33:36.066Z,99175.22
2023-03-08T22:36:07.217Z,99174.19
2023-03-08T22:38:34.249Z,99175.28
2023-03-08T22:41:00.907Z,99189.53
2023-03-08T22:43:27.933Z,99177.81
2023-03-08T22:45:56.135Z,99179.84
2023-03-08T22:48:22.659Z,99177.41
2023-03-08T22:50:56.301Z,99175.22
2023-03-08T22:53:28.254Z,99169.75
2023-03-08T22:55:59.335Z,99168.22
2023-03-08T22:58:27.792Z,99173.41
2023-03-08T23:00:56.068Z,99171.31
2023-03-08T23:03:22.733Z,99177.81
2023-03-08T23:05:49.187Z,99172.81
2023-03-08T23:08:16.263Z,99168.91
2023-03-08T23:10:43.293Z,99165.06
2023-03-08T23:13:14.349Z,99166.03
2023-03-08T23:15:43.508Z,99167.50
2023-03-08T23:18:10.299Z,99172.91
2023-03-08T23:20:37.154Z,99167.97
2023-03-08T23:23:04.214Z,99164.53
2023-03-08T23:25:30.987Z,99170.97
2023-03-08T23:27:59.153Z,99165.41
2023-03-08T23:30:25.878Z,99173.25
2023-03-08T23:32:54.151Z,99161.94
2023-03-08T23:35:20.759Z,99158.69
2023-03-08T23:37:47.356Z,99160.59
2023-03-08T23:40:14.245Z,99159.47
2023-03-08T23:42:41.281Z,99162.28
2023-03-08T23:45:08.243Z,99143.47
2023-03-08T23:47:35.352Z,99151.22
2023-03-08T23:50:02.133Z,99146.53
2023-03-08T23:52:28.978Z,99154.75
2023-03-08T23:54:55.685Z,99147.44
2023-03-08T23:57:22.366Z,99158.22
2023-03-08T23:59:49.124Z,99167.38
